Time;durP1;ratioP1;P1;durP2;ratioP2;P2;SDS_P1;SDS_P2;PMS_P1;PMS_P2;Temp;Humidity;BMP_temperature;BMP_pressure;BME280_temperature;BME280_humidity;BME280_pressure;Samples;Min_cycle;Max_cycle;Signal;HPM_P1;HPM_P2
2021/08/28 00:00:01;;;;;;;8.43;3.03;;;;;;;;;;5029093;28;20029;-82
2021/08/28 00:02:26;;;;;;;9.48;3.10;;;;;;;;;;5014204;28;20038;-82
2021/08/28 00:04:52;;;;;;;6.68;2.92;;;;;;;;;;5024287;28;20100;-82
2021/08/28 00:07:18;;;;;;;7.13;2.75;;;;;;;;;;5033689;28;20022;-82
2021/08/28 00:09:43;;;;;;;7.30;2.67;;;;;;;;;;5034706;28;20033;-82
2021/08/28 00:12:09;;;;;;;8.82;3.00;;;;;;;;;;5025849;28;20424;-82
2021/08/28 00:14:34;;;;;;;7.65;2.70;;;;;;;;;;5013487;28;20030;-82
2021/08/28 00:17:00;;;;;;;7.15;2.90;;;;;;;;;;5026145;28;20080;-82
2021/08/28 00:19:25;;;;;;;7.00;3.20;;;;;;;;;;5033820;28;20056;-82
2021/08/28 00:21:50;;;;;;;11.55;6.75;;;;;;;;;;5032444;28;20036;-82
2021/08/28 00:24:16;;;;;;;11.60;6.35;;;;;;;;;;5012783;28;20472;-81
2021/08/28 00:26:41;;;;;;;11.07;5.30;;;;;;;;;;5032970;28;20029;-81
2021/08/28 00:29:07;;;;;;;9.48;4.38;;;;;;;;;;5015823;28;20036;-81
2021/08/28 00:31:32;;;;;;;5.50;3.42;;;;;;;;;;4999609;28;20029;-81
2021/08/28 00:33:58;;;;;;;5.60;3.10;;;;;;;;;;5033319;28;20029;-82
2021/08/28 00:36:23;;;;;;;8.00;3.35;;;;;;;;;;5001036;28;20470;-82
2021/08/28 00:38:48;;;;;;;6.25;3.35;;;;;;;;;;5017200;28;20083;-82
2021/08/28 00:41:15;;;;;;;11.65;3.38;;;;;;;;;;4997446;28;20033;-82
2021/08/28 00:43:40;;;;;;;10.05;3.58;;;;;;;;;;5026786;28;20021;-82
2021/08/28 00:46:05;;;;;;;8.52;3.22;;;;;;;;;;5034905;28;20032;-82
2021/08/28 00:48:31;;;;;;;7.20;4.07;;;;;;;;;;5013929;28;20030;-82
2021/08/28 00:50:56;;;;;;;10.35;4.43;;;;;;;;;;5032932;28;20120;-82
2021/08/28 00:53:22;;;;;;;10.98;4.00;;;;;;;;;;5033967;28;20400;-82
2021/08/28 00:55:50;;;;;;;7.90;3.80;;;;;;;;;;5017304;28;20033;-82
2021/08/28 00:58:17;;;;;;;10.10;3.25;;;;;;;;;;5032876;28;20163;-82
2021/08/28 01:00:44;;;;;;;7.70;3.63;;;;;;;;;;5033764;28;20491;-81
2021/08/28 01:03:11;;;;;;;6.13;3.13;;;;;;;;;;5030869;28;20056;-81
2021/08/28 01:05:43;;;;;;;7.30;3.25;;;;;;;;;;5032225;28;20040;-81
2021/08/28 01:08:16;;;;;;;8.10;3.10;;;;;;;;;;5033504;28;20032;-81
2021/08/28 01:10:45;;;;;;;;;;;;;;;;;;5036239;28;20388;-81
2021/08/28 01:13:13;;;;;;;9.55;3.28;;;;;;;;;;5033155;28;19917;-81
2021/08/28 01:15:40;;;;;;;7.65;3.20;;;;;;;;;;5029553;28;20049;-81
2021/08/28 01:18:11;;;;;;;10.57;3.17;;;;;;;;;;5010821;28;20021;-81
2021/08/28 01:20:45;;;;;;;10.02;3.85;;;;;;;;;;5033396;28;20539;-81
2021/08/28 01:23:11;;;;;;;7.40;3.22;;;;;;;;;;5033494;28;20048;-81
2021/08/28 01:25:38;;;;;;;8.57;3.63;;;;;;;;;;5015426;28;20042;-81
2021/08/28 01:28:09;;;;;;;9.88;3.63;;;;;;;;;;5012161;28;20026;-81
2021/08/28 01:30:38;;;;;;;7.80;3.60;;;;;;;;;;5024898;28;20022;-81
2021/08/28 01:33:04;;;;;;;8.98;3.22;;;;;;;;;;5028445;28;20030;-81
2021/08/28 01:35:30;;;;;;;6.65;3.00;;;;;;;;;;5016102;28;20061;-81
2021/08/28 01:37:58;;;;;;;7.93;3.03;;;;;;;;;;5012171;28;20037;-81
2021/08/28 01:40:27;;;;;;;9.38;3.13;;;;;;;;;;5021540;28;20128;-81
2021/08/28 01:42:53;;;;;;;8.60;3.30;;;;;;;;;;5028271;28;20072;-81
2021/08/28 01:45:23;;;;;;;7.85;3.30;;;;;;;;;;5030328;28;20369;-81
2021/08/28 01:47:50;;;;;;;6.82;3.17;;;;;;;;;;5032671;28;20993;-81
2021/08/28 01:50:21;;;;;;;11.25;3.50;;;;;;;;;;5032032;28;20469;-81
2021/08/28 01:52:48;;;;;;;10.25;3.28;;;;;;;;;;5031896;28;20551;-81
2021/08/28 01:55:13;;;;;;;9.10;3.40;;;;;;;;;;5031208;28;20083;-81
2021/08/28 01:57:39;;;;;;;7.55;3.17;;;;;;;;;;5035078;28;20061;-81
2021/08/28 02:00:05;;;;;;;8.63;3.42;;;;;;;;;;5032560;28;20033;-81
2021/08/28 02:02:31;;;;;;;8.90;3.33;;;;;;;;;;5035186;28;20095;-81
2021/08/28 02:04:57;;;;;;;8.25;3.30;;;;;;;;;;5035071;28;20504;-81
2021/08/28 02:07:38;;;;;;;7.32;3.30;;;;;;;;;;5036472;28;20026;-81
2021/08/28 02:10:07;;;;;;;8.68;3.40;;;;;;;;;;5036381;28;20025;-81
2021/08/28 02:12:43;;;;;;;9.38;3.40;;;;;;;;;;5037043;28;20043;-81
2021/08/28 02:15:15;;;;;;;10.23;3.63;;;;;;;;;;5036627;28;20457;-81
2021/08/28 02:18:19;;;;;;;8.60;3.78;;;;;;;;;;5035015;28;20027;-81
2021/08/28 02:20:50;;;;;;;8.65;3.03;;;;;;;;;;5032467;28;20079;-81
2021/08/28 02:23:26;;;;;;;9.18;3.30;;;;;;;;;;5018284;28;20075;-81
2021/08/28 02:26:01;;;;;;;9.73;3.55;;;;;;;;;;5034231;28;20535;-81
2021/08/28 02:28:33;;;;;;;7.38;3.53;;;;;;;;;;5035585;28;20079;-81
2021/08/28 02:31:00;;;;;;;8.10;3.28;;;;;;;;;;5035706;28;20048;-81
2021/08/28 02:33:26;;;;;;;12.40;3.67;;;;;;;;;;5035429;28;20029;-81
2021/08/28 02:35:54;;;;;;;7.72;3.60;;;;;;;;;;5034523;28;20108;-81
2021/08/28 02:38:19;;;;;;;9.20;3.33;;;;;;;;;;5034105;28;20026;-81
2021/08/28 02:40:47;;;;;;;5.78;3.10;;;;;;;;;;5001439;28;20027;-81
2021/08/28 02:43:15;;;;;;;10.50;3.50;;;;;;;;;;5018115;28;20128;-81
2021/08/28 02:45:41;;;;;;;8.60;3.60;;;;;;;;;;5034313;28;20021;-81
2021/08/28 02:48:08;;;;;;;8.70;3.97;;;;;;;;;;5017533;28;20037;-81
2021/08/28 02:50:35;;;;;;;7.85;3.38;;;;;;;;;;5034400;28;20037;-81
2021/08/28 02:53:02;;;;;;;15.63;4.35;;;;;;;;;;5030843;28;20389;-81
2021/08/28 02:55:30;;;;;;;10.70;3.60;;;;;;;;;;5026791;28;20068;-81
2021/08/28 02:57:57;;;;;;;20.25;3.92;;;;;;;;;;5033716;28;20034;-81
2021/08/28 03:00:23;;;;;;;11.07;3.75;;;;;;;;;;5033950;28;20396;-81
2021/08/28 03:02:50;;;;;;;10.73;3.35;;;;;;;;;;5034034;28;20025;-81
2021/08/28 03:05:17;;;;;;;9.10;3.45;;;;;;;;;;5017210;28;20013;-81
2021/08/28 03:07:44;;;;;;;12.57;3.90;;;;;;;;;;5032588;28;20473;-81
2021/08/28 03:10:10;;;;;;;12.23;3.80;;;;;;;;;;5037053;28;20078;-81
2021/08/28 03:12:37;;;;;;;7.85;3.50;;;;;;;;;;5021060;28;20040;-81
2021/08/28 03:15:05;;;;;;;10.85;3.72;;;;;;;;;;5033572;28;20030;-81
2021/08/28 03:17:30;;;;;;;8.70;3.60;;;;;;;;;;5034991;28;20068;-81
2021/08/28 03:19:58;;;;;;;9.85;3.47;;;;;;;;;;5030115;28;20573;-81
2021/08/28 03:22:24;;;;;;;8.10;3.45;;;;;;;;;;5031714;28;20116;-81
2021/08/28 03:24:52;;;;;;;9.20;3.72;;;;;;;;;;5034857;28;20529;-81
2021/08/28 03:27:19;;;;;;;10.10;3.63;;;;;;;;;;5034642;28;20025;-81
2021/08/28 03:29:46;;;;;;;10.13;3.88;;;;;;;;;;5033342;28;20511;-81
2021/08/28 03:32:11;;;;;;;8.88;3.40;;;;;;;;;;5034520;28;20021;-81
2021/08/28 03:34:38;;;;;;;9.27;3.88;;;;;;;;;;5016715;28;20045;-81
2021/08/28 03:37:03;;;;;;;9.77;3.40;;;;;;;;;;5006105;28;20025;-81
2021/08/28 03:39:30;;;;;;;8.68;4.10;;;;;;;;;;5034338;28;20029;-81
2021/08/28 03:41:55;;;;;;;10.35;4.13;;;;;;;;;;5016449;28;20029;-81
2021/08/28 03:44:21;;;;;;;9.90;4.15;;;;;;;;;;5034500;28;20017;-81
2021/08/28 03:46:48;;;;;;;6.70;3.75;;;;;;;;;;4999899;28;20116;-81
2021/08/28 03:49:15;;;;;;;11.48;4.60;;;;;;;;;;5034788;28;20039;-81
2021/08/28 03:51:41;;;;;;;7.05;3.60;;;;;;;;;;5033151;28;20036;-81
2021/08/28 03:54:06;;;;;;;9.50;4.25;;;;;;;;;;5016609;28;20037;-81
2021/08/28 03:56:31;;;;;;;11.80;3.80;;;;;;;;;;5034102;28;20025;-81
2021/08/28 03:58:57;;;;;;;8.27;3.38;;;;;;;;;;4997057;28;20037;-81
2021/08/28 04:01:22;;;;;;;7.47;3.50;;;;;;;;;;5033989;28;20026;-81
2021/08/28 04:03:48;;;;;;;7.78;3.42;;;;;;;;;;5033156;28;20054;-81
2021/08/28 04:06:13;;;;;;;7.95;3.30;;;;;;;;;;5016524;28;20064;-81
2021/08/28 04:08:39;;;;;;;10.07;3.83;;;;;;;;;;5032861;28;20076;-81
2021/08/28 04:11:04;;;;;;;12.68;3.60;;;;;;;;;;5034092;28;20037;-81
2021/08/28 04:13:30;;;;;;;14.32;4.18;;;;;;;;;;5012867;28;20026;-81
2021/08/28 04:15:55;;;;;;;10.23;3.58;;;;;;;;;;5004115;28;20392;-81
2021/08/28 04:18:21;;;;;;;7.93;3.30;;;;;;;;;;5033855;28;20066;-81
2021/08/28 04:20:47;;;;;;;7.53;3.60;;;;;;;;;;5033505;28;20092;-81
2021/08/28 04:23:12;;;;;;;9.13;3.65;;;;;;;;;;5033690;28;20108;-81
2021/08/28 04:25:38;;;;;;;10.13;3.67;;;;;;;;;;5032610;28;20030;-81
2021/08/28 04:28:04;;;;;;;8.25;3.33;;;;;;;;;;5032373;28;20455;-81
2021/08/28 04:30:29;;;;;;;9.73;4.05;;;;;;;;;;5032955;28;20025;-81
2021/08/28 04:32:55;;;;;;;11.07;3.95;;;;;;;;;;5029796;28;20025;-81
2021/08/28 04:35:21;;;;;;;12.73;4.05;;;;;;;;;;5032364;28;20373;-81
2021/08/28 04:37:46;;;;;;;11.98;3.85;;;;;;;;;;5012998;28;20034;-81
2021/08/28 04:40:12;;;;;;;8.07;3.90;;;;;;;;;;5011800;28;20036;-81
2021/08/28 04:42:37;;;;;;;8.25;3.63;;;;;;;;;;5015540;28;20060;-81
2021/08/28 04:45:05;;;;;;;9.40;4.00;;;;;;;;;;5032213;28;20055;-81
2021/08/28 04:47:30;;;;;;;8.35;3.35;;;;;;;;;;5032060;28;20026;-81
2021/08/28 04:49:56;;;;;;;10.10;3.40;;;;;;;;;;5031951;28;20099;-81
2021/08/28 04:52:23;;;;;;;10.88;3.55;;;;;;;;;;4999670;28;20493;-81
2021/08/28 04:54:49;;;;;;;6.65;3.25;;;;;;;;;;5033487;28;20493;-81
2021/08/28 04:57:14;;;;;;;9.10;3.50;;;;;;;;;;5032939;28;20025;-81
2021/08/28 04:59:40;;;;;;;10.60;3.42;;;;;;;;;;5031954;28;20481;-81
2021/08/28 05:02:05;;;;;;;6.50;3.30;;;;;;;;;;5015445;28;20043;-81
2021/08/28 05:04:31;;;;;;;8.30;3.55;;;;;;;;;;5034981;28;20025;-81
2021/08/28 05:06:57;;;;;;;8.45;3.13;;;;;;;;;;5034065;28;20030;-81
2021/08/28 05:09:23;;;;;;;8.07;3.08;;;;;;;;;;5031777;28;20041;-81
2021/08/28 05:11:48;;;;;;;7.00;2.97;;;;;;;;;;5000523;28;20025;-81
2021/08/28 05:14:14;;;;;;;10.65;3.58;;;;;;;;;;5012269;28;20433;-81
2021/08/28 05:16:40;;;;;;;7.30;3.38;;;;;;;;;;5024660;28;20028;-81
2021/08/28 05:19:05;;;;;;;6.88;3.30;;;;;;;;;;5011762;28;20053;-81
2021/08/28 05:21:31;;;;;;;8.38;2.97;;;;;;;;;;5007316;28;20041;-81
2021/08/28 05:23:57;;;;;;;8.25;3.13;;;;;;;;;;5030542;28;20474;-81
2021/08/28 05:26:23;;;;;;;7.10;3.22;;;;;;;;;;5014637;28;20022;-81
2021/08/28 05:28:48;;;;;;;6.47;3.20;;;;;;;;;;5033839;28;20038;-81
2021/08/28 05:31:14;;;;;;;7.57;3.00;;;;;;;;;;5016597;28;20032;-81
2021/08/28 05:33:39;;;;;;;5.80;3.15;;;;;;;;;;5019228;28;20116;-81
2021/08/28 05:36:05;;;;;;;6.45;3.20;;;;;;;;;;5035576;28;20469;-81
2021/08/28 05:38:30;;;;;;;5.55;2.80;;;;;;;;;;5002378;28;20044;-81
2021/08/28 05:40:57;;;;;;;7.95;3.03;;;;;;;;;;5035257;28;20029;-81
2021/08/28 05:43:22;;;;;;;6.30;2.97;;;;;;;;;;5035080;28;20465;-81
2021/08/28 05:45:48;;;;;;;6.78;2.88;;;;;;;;;;5000917;28;20032;-81
2021/08/28 05:48:13;;;;;;;5.47;2.90;;;;;;;;;;5035309;28;20030;-81
2021/08/28 05:50:39;;;;;;;8.48;3.10;;;;;;;;;;5035455;28;20036;-81
2021/08/28 05:53:04;;;;;;;5.53;3.00;;;;;;;;;;5018561;28;20029;-81
2021/08/28 05:55:29;;;;;;;6.03;2.70;;;;;;;;;;5016822;28;20489;-81
2021/08/28 05:57:55;;;;;;;7.25;2.90;;;;;;;;;;5035381;28;20029;-81
2021/08/28 06:00:20;;;;;;;6.70;2.78;;;;;;;;;;5035393;28;20036;-81
2021/08/28 06:02:45;;;;;;;7.28;2.78;;;;;;;;;;5036179;28;20113;-81
2021/08/28 06:05:12;;;;;;;5.30;3.10;;;;;;;;;;5018332;28;20097;-81
2021/08/28 06:07:38;;;;;;;5.82;3.05;;;;;;;;;;5036255;28;20033;-81
2021/08/28 06:10:05;;;;;;;7.38;3.17;;;;;;;;;;5034812;28;20547;-81
2021/08/28 06:12:30;;;;;;;7.53;2.90;;;;;;;;;;5018958;28;20026;-81
2021/08/28 06:14:56;;;;;;;6.63;2.75;;;;;;;;;;5034830;28;20504;-81
2021/08/28 06:17:21;;;;;;;6.28;3.22;;;;;;;;;;5018286;28;20435;-81
2021/08/28 06:19:47;;;;;;;8.43;3.08;;;;;;;;;;5034486;28;20107;-81
2021/08/28 06:22:12;;;;;;;7.90;3.63;;;;;;;;;;5015192;28;20088;-81
2021/08/28 06:24:38;;;;;;;9.00;3.13;;;;;;;;;;5031401;28;20025;-81
2021/08/28 06:27:03;;;;;;;7.05;3.47;;;;;;;;;;5034657;28;20485;-81
2021/08/28 06:29:29;;;;;;;6.47;3.55;;;;;;;;;;5034681;28;20034;-81
2021/08/28 06:31:54;;;;;;;6.97;3.55;;;;;;;;;;5035577;28;20485;-81
2021/08/28 06:34:20;;;;;;;8.85;3.80;;;;;;;;;;5018002;28;20021;-81
2021/08/28 06:36:45;;;;;;;11.90;4.00;;;;;;;;;;5017973;28;20033;-81
2021/08/28 06:39:11;;;;;;;9.27;4.13;;;;;;;;;;5034816;28;20440;-81
2021/08/28 06:41:36;;;;;;;8.27;4.00;;;;;;;;;;5035378;28;20465;-81
2021/08/28 06:44:03;;;;;;;6.90;3.10;;;;;;;;;;5017805;28;20064;-81
2021/08/28 06:46:30;;;;;;;9.18;4.35;;;;;;;;;;5035557;28;20040;-81
2021/08/28 06:48:55;;;;;;;7.15;3.42;;;;;;;;;;5034128;28;20040;-81
2021/08/28 06:51:21;;;;;;;7.00;3.85;;;;;;;;;;5034552;28;20415;-81
2021/08/28 06:53:49;;;;;;;8.70;3.70;;;;;;;;;;5034443;28;20037;-81
2021/08/28 06:56:14;;;;;;;9.85;4.22;;;;;;;;;;5034544;28;20393;-81
2021/08/28 06:58:40;;;;;;;7.32;3.83;;;;;;;;;;5017669;28;20030;-81
2021/08/28 07:01:05;;;;;;;7.72;4.13;;;;;;;;;;5034067;28;20041;-81
2021/08/28 07:03:30;;;;;;;8.32;4.18;;;;;;;;;;4998206;28;20437;-81
2021/08/28 07:05:56;;;;;;;8.82;4.35;;;;;;;;;;5031053;28;20030;-81
2021/08/28 07:08:21;;;;;;;8.73;4.25;;;;;;;;;;5023657;28;20068;-81
2021/08/28 07:10:47;;;;;;;7.63;3.95;;;;;;;;;;5033983;28;20038;-81
2021/08/28 07:13:12;;;;;;;10.15;4.30;;;;;;;;;;5017052;28;20599;-81
2021/08/28 07:15:38;;;;;;;9.65;4.22;;;;;;;;;;5035789;28;20100;-81
2021/08/28 07:18:04;;;;;;;8.48;4.10;;;;;;;;;;5033954;28;20021;-81
2021/08/28 07:20:29;;;;;;;7.85;3.95;;;;;;;;;;5033912;28;20080;-81
2021/08/28 07:22:55;;;;;;;7.28;4.35;;;;;;;;;;5034144;28;20060;-81
2021/08/28 07:25:20;;;;;;;10.80;4.65;;;;;;;;;;5035369;28;20021;-81
2021/08/28 07:27:45;;;;;;;10.05;5.15;;;;;;;;;;5035028;28;20055;-81
2021/08/28 07:30:11;;;;;;;8.40;4.35;;;;;;;;;;5033440;28;20053;-81
2021/08/28 07:32:37;;;;;;;10.18;4.75;;;;;;;;;;5034819;28;20033;-81
2021/08/28 07:35:03;;;;;;;9.02;4.05;;;;;;;;;;5017014;28;20451;-81
2021/08/28 07:37:28;;;;;;;9.98;4.40;;;;;;;;;;5034645;28;20026;-81
2021/08/28 07:39:54;;;;;;;10.18;4.20;;;;;;;;;;5033412;28;20025;-81
2021/08/28 07:42:19;;;;;;;9.73;4.32;;;;;;;;;;5033171;28;20026;-81
2021/08/28 07:44:45;;;;;;;7.47;4.03;;;;;;;;;;5000468;28;20492;-81
2021/08/28 07:47:10;;;;;;;9.45;4.55;;;;;;;;;;5016878;28;20025;-81
2021/08/28 07:49:36;;;;;;;9.90;4.82;;;;;;;;;;5033276;28;20119;-81
2021/08/28 07:52:02;;;;;;;8.85;4.63;;;;;;;;;;5000597;28;20080;-81
2021/08/28 07:54:28;;;;;;;7.78;4.22;;;;;;;;;;5033558;28;20500;-81
2021/08/28 07:56:53;;;;;;;13.13;4.68;;;;;;;;;;5021216;28;20036;-81
2021/08/28 07:59:18;;;;;;;9.50;4.03;;;;;;;;;;5000091;28;20479;-81
2021/08/28 08:01:44;;;;;;;7.50;4.10;;;;;;;;;;5017393;28;20465;-81
2021/08/28 08:04:11;;;;;;;7.47;4.22;;;;;;;;;;5015179;28;20389;-81
2021/08/28 08:06:36;;;;;;;10.00;4.40;;;;;;;;;;5033901;28;20057;-82
2021/08/28 08:09:02;;;;;;;7.93;4.55;;;;;;;;;;5033910;28;20076;-81
2021/08/28 08:11:28;;;;;;;7.18;4.05;;;;;;;;;;5036522;28;20059;-81
2021/08/28 08:13:53;;;;;;;11.50;4.38;;;;;;;;;;5016730;28;20029;-81
2021/08/28 08:16:18;;;;;;;13.40;4.38;;;;;;;;;;5016811;28;20025;-81
2021/08/28 08:18:44;;;;;;;7.95;4.35;;;;;;;;;;5032945;28;20103;-81
2021/08/28 08:21:09;;;;;;;9.13;4.30;;;;;;;;;;5013479;28;20445;-81
2021/08/28 08:23:35;;;;;;;11.10;4.18;;;;;;;;;;5031917;28;20462;-82
2021/08/28 08:26:00;;;;;;;9.50;4.53;;;;;;;;;;5033388;28;20124;-82
2021/08/28 08:28:25;;;;;;;12.35;4.05;;;;;;;;;;5013416;28;20029;-81
2021/08/28 08:30:51;;;;;;;12.48;4.60;;;;;;;;;;5030228;28;20443;-81
2021/08/28 08:33:16;;;;;;;11.27;4.13;;;;;;;;;;5015346;28;20034;-81
2021/08/28 08:35:42;;;;;;;9.52;4.40;;;;;;;;;;5034151;28;20036;-82
2021/08/28 08:38:07;;;;;;;8.32;4.20;;;;;;;;;;5033195;28;20040;-81
2021/08/28 08:40:33;;;;;;;9.00;4.03;;;;;;;;;;5016172;28;20021;-82
2021/08/28 08:43:04;;;;;;;6.93;4.03;;;;;;;;;;5029928;28;20026;-81
2021/08/28 08:45:29;;;;;;;7.13;4.07;;;;;;;;;;5030105;28;20531;-81
2021/08/28 08:47:56;;;;;;;8.63;4.45;;;;;;;;;;5032428;28;20021;-81
2021/08/28 08:50:28;;;;;;;8.40;4.60;;;;;;;;;;5032310;28;20075;-82
2021/08/28 08:52:58;;;;;;;7.93;4.63;;;;;;;;;;5033707;28;20025;-82
2021/08/28 08:55:24;;;;;;;10.52;4.68;;;;;;;;;;5032769;28;20037;-82
2021/08/28 08:57:50;;;;;;;8.52;4.35;;;;;;;;;;5034268;28;20037;-82
2021/08/28 09:00:16;;;;;;;7.97;4.22;;;;;;;;;;5033106;28;20466;-82
2021/08/28 09:02:41;;;;;;;8.65;4.35;;;;;;;;;;5000577;28;20072;-82
2021/08/28 09:05:07;;;;;;;9.90;4.47;;;;;;;;;;5017553;28;20022;-82
2021/08/28 09:07:34;;;;;;;9.27;4.45;;;;;;;;;;5038645;28;20474;-82
2021/08/28 09:09:59;;;;;;;7.55;4.75;;;;;;;;;;5038096;28;20025;-82
2021/08/28 09:12:39;;;;;;;11.07;5.10;;;;;;;;;;5020039;28;20033;-82
2021/08/28 09:15:08;;;;;;;6.90;4.30;;;;;;;;;;5036837;28;20404;-82
2021/08/28 09:17:34;;;;;;;6.78;4.13;;;;;;;;;;5019698;28;20057;-82
2021/08/28 09:20:01;;;;;;;7.43;4.38;;;;;;;;;;5035778;28;20053;-82
2021/08/28 09:22:39;;;;;;;9.25;3.92;;;;;;;;;;5037942;28;20025;-82
2021/08/28 09:25:07;;;;;;;7.65;4.18;;;;;;;;;;5037428;28;20515;-82
2021/08/28 09:27:41;;;;;;;10.77;3.97;;;;;;;;;;5036625;28;20025;-82
2021/08/28 09:30:28;;;;;;;7.70;4.35;;;;;;;;;;5035750;28;20111;-82
2021/08/28 09:32:59;;;;;;;8.88;4.40;;;;;;;;;;5034757;28;20451;-82
2021/08/28 09:35:47;;;;;;;8.95;4.78;;;;;;;;;;5032388;28;20033;-82
2021/08/28 09:38:17;;;;;;;10.30;4.70;;;;;;;;;;5035147;28;20116;-82
2021/08/28 09:40:54;;;;;;;8.60;4.85;;;;;;;;;;5035867;28;20040;-82
2021/08/28 09:43:21;;;;;;;8.93;4.43;;;;;;;;;;5037916;28;20025;-82
2021/08/28 09:45:50;;;;;;;8.23;4.68;;;;;;;;;;5003782;28;20405;-82
2021/08/28 09:48:17;;;;;;;8.30;4.72;;;;;;;;;;5020914;28;20519;-82
2021/08/28 09:50:44;;;;;;;9.35;4.88;;;;;;;;;;5037711;28;20017;-82
2021/08/28 09:53:29;;;;;;;8.60;4.70;;;;;;;;;;5037342;28;20464;-82
2021/08/28 09:55:58;;;;;;;10.68;4.90;;;;;;;;;;5036323;28;20041;-82
2021/08/28 09:58:25;;;;;;;7.85;4.53;;;;;;;;;;5020713;28;20132;-82
2021/08/28 10:00:51;;;;;;;8.32;4.45;;;;;;;;;;5036395;28;20021;-82
2021/08/28 10:03:18;;;;;;;6.97;4.10;;;;;;;;;;5036638;28;20116;-83
2021/08/28 10:05:47;;;;;;;7.43;4.40;;;;;;;;;;5025896;28;20022;-83
2021/08/28 10:08:13;;;;;;;9.68;4.80;;;;;;;;;;5035945;28;20030;-83
2021/08/28 10:10:39;;;;;;;8.25;4.88;;;;;;;;;;5025823;28;20044;-82
2021/08/28 10:13:06;;;;;;;7.65;4.38;;;;;;;;;;5016858;28;20030;-82
2021/08/28 10:15:33;;;;;;;8.57;4.40;;;;;;;;;;5019843;28;20039;-82
2021/08/28 10:18:01;;;;;;;7.30;4.25;;;;;;;;;;5033127;28;20029;-82
2021/08/28 10:20:28;;;;;;;11.60;5.90;;;;;;;;;;5026779;28;20049;-82
2021/08/28 10:22:56;;;;;;;10.18;4.30;;;;;;;;;;5019277;28;20083;-83
2021/08/28 10:25:24;;;;;;;7.13;4.40;;;;;;;;;;5034819;28;20052;-82
2021/08/28 10:27:51;;;;;;;8.23;4.50;;;;;;;;;;5034575;28;20048;-83
2021/08/28 10:30:19;;;;;;;7.22;4.75;;;;;;;;;;5018525;28;20025;-83
2021/08/28 10:32:45;;;;;;;11.02;4.88;;;;;;;;;;5036592;28;20056;-83
2021/08/28 10:35:12;;;;;;;7.82;4.38;;;;;;;;;;5037499;28;20052;-83
2021/08/28 10:37:38;;;;;;;10.23;4.68;;;;;;;;;;5036242;28;20128;-83
2021/08/28 10:40:18;;;;;;;9.52;4.70;;;;;;;;;;5032615;28;20485;-83
2021/08/28 10:42:43;;;;;;;8.05;4.68;;;;;;;;;;5032393;28;20018;-83
2021/08/28 10:45:11;;;;;;;12.00;4.53;;;;;;;;;;5035252;28;20423;-83
2021/08/28 10:47:36;;;;;;;12.45;4.82;;;;;;;;;;5019326;28;20389;-82
2021/08/28 10:50:11;;;;;;;8.77;4.38;;;;;;;;;;5035457;28;20040;-82
2021/08/28 10:52:38;;;;;;;8.65;4.32;;;;;;;;;;5031727;28;20499;-82
2021/08/28 10:55:04;;;;;;;9.07;4.43;;;;;;;;;;5035043;28;20160;-82
2021/08/28 10:57:29;;;;;;;7.95;4.18;;;;;;;;;;5034710;28;20445;-82
2021/08/28 11:00:03;;;;;;;6.07;3.80;;;;;;;;;;5015224;28;20061;-83
2021/08/28 11:02:59;;;;;;;6.20;3.78;;;;;;;;;;5029839;28;20029;-83
2021/08/28 11:05:27;;;;;;;9.32;4.70;;;;;;;;;;5030680;28;20033;-83
2021/08/28 11:07:54;;;;;;;5.35;3.72;;;;;;;;;;5017424;28;20041;-83
2021/08/28 11:10:20;;;;;;;6.85;3.67;;;;;;;;;;5040045;28;20032;-82
2021/08/28 11:12:49;;;;;;;7.05;3.75;;;;;;;;;;5038872;28;20032;-83
2021/08/28 11:15:30;;;;;;;6.97;3.83;;;;;;;;;;5035336;28;20021;-83
2021/08/28 11:18:06;;;;;;;8.50;4.10;;;;;;;;;;5035152;28;20053;-83
2021/08/28 11:20:47;;;;;;;7.55;4.00;;;;;;;;;;5035601;28;20037;-83
2021/08/28 11:23:17;;;;;;;6.38;4.03;;;;;;;;;;5035832;28;20040;-83
2021/08/28 11:25:46;;;;;;;7.65;3.90;;;;;;;;;;5019768;28;20026;-83
2021/08/28 11:28:12;;;;;;;6.07;3.80;;;;;;;;;;5034353;28;20025;-83
2021/08/28 11:30:46;;;;;;;6.60;3.70;;;;;;;;;;5034713;28;20017;-83
2021/08/28 11:33:28;;;;;;;6.65;3.97;;;;;;;;;;5035015;28;20097;-83
2021/08/28 11:35:59;;;;;;;6.45;3.83;;;;;;;;;;5035162;28;20059;-83
2021/08/28 11:38:34;;;;;;;6.10;4.15;;;;;;;;;;5036682;28;20033;-83
2021/08/28 11:41:24;;;;;;;8.02;4.43;;;;;;;;;;5036837;28;20488;-83
2021/08/28 11:43:52;;;;;;;6.85;3.80;;;;;;;;;;5022152;28;20546;-83
2021/08/28 11:46:28;;;;;;;7.32;3.60;;;;;;;;;;5035940;28;20060;-83
2021/08/28 11:48:55;;;;;;;6.53;3.13;;;;;;;;;;5032015;28;20052;-83
2021/08/28 11:51:29;;;;;;;7.53;3.47;;;;;;;;;;5073479;28;20414;-83
2021/08/28 11:53:57;;;;;;;6.82;3.60;;;;;;;;;;5056526;28;20036;-82
2021/08/28 11:56:29;;;;;;;6.72;3.10;;;;;;;;;;5075101;28;20096;-83
2021/08/28 11:59:03;;;;;;;6.50;3.78;;;;;;;;;;5074555;28;20469;-83
2021/08/28 12:01:39;;;;;;;7.55;3.10;;;;;;;;;;5076196;28;20078;-83
2021/08/28 12:04:13;;;;;;;5.72;2.83;;;;;;;;;;5073779;28;20025;-82
2021/08/28 12:06:41;;;;;;;5.60;2.90;;;;;;;;;;5056466;28;20024;-84
2021/08/28 12:09:11;;;;;;;6.35;2.83;;;;;;;;;;5072903;28;20389;-82
2021/08/28 12:11:43;;;;;;;5.22;2.75;;;;;;;;;;5058369;28;20029;-82
2021/08/28 12:14:10;;;;;;;5.78;3.33;;;;;;;;;;5076403;28;20119;-82
2021/08/28 12:16:39;;;;;;;6.43;2.95;;;;;;;;;;5056962;28;20040;-82
2021/08/28 12:19:07;;;;;;;6.07;3.22;;;;;;;;;;5074334;28;20036;-84
2021/08/28 12:21:39;;;;;;;7.15;3.75;;;;;;;;;;5075197;28;20088;-82
2021/08/28 12:24:24;;;;;;;6.15;3.42;;;;;;;;;;5075846;28;20068;-83
2021/08/28 12:26:52;;;;;;;6.85;2.85;;;;;;;;;;5075296;28;20086;-84
2021/08/28 12:29:44;;;;;;;7.50;3.17;;;;;;;;;;5075530;28;20050;-83
2021/08/28 12:32:19;;;;;;;5.78;2.95;;;;;;;;;;5075205;28;20036;-83
2021/08/28 12:34:53;;;;;;;5.80;2.50;;;;;;;;;;5075867;28;20020;-83
2021/08/28 12:37:20;;;;;;;4.78;2.70;;;;;;;;;;5057619;28;20499;-83
2021/08/28 12:39:48;;;;;;;4.65;3.00;;;;;;;;;;5075329;28;20016;-83
2021/08/28 12:42:15;;;;;;;8.07;2.88;;;;;;;;;;5076402;28;20025;-83
2021/08/28 12:44:56;;;;;;;6.00;2.80;;;;;;;;;;5079319;28;20029;-83
2021/08/28 12:47:23;;;;;;;6.95;2.80;;;;;;;;;;5075684;28;20020;-83
2021/08/28 12:49:53;;;;;;;5.82;2.92;;;;;;;;;;5041044;28;20048;-83
2021/08/28 12:52:20;;;;;;;4.82;2.78;;;;;;;;;;5073222;28;20043;-83
2021/08/28 12:54:45;;;;;;;7.75;2.83;;;;;;;;;;5056521;28;20052;-83
2021/08/28 12:57:17;;;;;;;6.00;3.17;;;;;;;;;;5073645;28;20090;-83
2021/08/28 12:59:43;;;;;;;6.95;2.72;;;;;;;;;;5072604;28;20051;-83
2021/08/28 13:02:24;;;;;;;7.75;3.10;;;;;;;;;;5059976;28;20025;-83
2021/08/28 13:04:51;;;;;;;8.05;2.83;;;;;;;;;;5052355;28;20028;-85
2021/08/28 13:07:24;;;;;;;7.03;2.80;;;;;;;;;;5063192;28;20028;-83
2021/08/28 13:10:04;;;;;;;6.65;2.40;;;;;;;;;;5061722;28;20130;-82
2021/08/28 13:12:45;;;;;;;7.32;2.80;;;;;;;;;;5060530;28;20029;-84
2021/08/28 13:15:13;;;;;;;9.75;2.35;;;;;;;;;;5062558;28;20021;-83
2021/08/28 13:17:41;;;;;;;5.53;2.60;;;;;;;;;;5059786;28;20472;-83
2021/08/28 13:20:12;;;;;;;6.95;2.60;;;;;;;;;;5057552;28;20396;-83
2021/08/28 13:22:48;;;;;;;5.43;2.38;;;;;;;;;;5058755;28;20025;-83
2021/08/28 13:25:21;;;;;;;7.90;2.70;;;;;;;;;;5060035;28;20025;-83
2021/08/28 13:27:47;;;;;;;6.55;2.80;;;;;;;;;;5059225;28;20044;-83
2021/08/28 13:30:18;;;;;;;7.13;3.08;;;;;;;;;;5025496;28;20017;-84
2021/08/28 13:33:01;;;;;;;5.40;2.50;;;;;;;;;;5058603;28;20021;-84
2021/08/28 13:35:27;;;;;;;4.27;2.10;;;;;;;;;;5061782;28;20063;-84
2021/08/28 13:37:53;;;;;;;5.90;2.85;;;;;;;;;;5039236;28;20057;-84
2021/08/28 13:40:18;;;;;;;6.47;2.60;;;;;;;;;;5042215;28;20029;-84
2021/08/28 13:42:47;;;;;;;6.47;2.63;;;;;;;;;;5043602;28;20027;-84
2021/08/28 13:45:14;;;;;;;7.32;2.80;;;;;;;;;;5059925;28;20060;-84
2021/08/28 13:47:40;;;;;;;6.28;3.35;;;;;;;;;;5059168;28;20035;-84
2021/08/28 13:50:06;;;;;;;6.88;2.65;;;;;;;;;;5042801;28;20072;-84
2021/08/28 13:52:31;;;;;;;5.68;2.67;;;;;;;;;;5042880;28;20029;-84
2021/08/28 13:54:57;;;;;;;7.75;2.60;;;;;;;;;;5042202;28;20052;-84
2021/08/28 13:57:22;;;;;;;5.68;2.70;;;;;;;;;;5025385;28;20491;-84
2021/08/28 13:59:48;;;;;;;5.25;2.50;;;;;;;;;;5025937;28;20032;-84
2021/08/28 14:02:13;;;;;;;6.00;2.33;;;;;;;;;;5059274;28;20483;-84
2021/08/28 14:04:38;;;;;;;6.68;2.20;;;;;;;;;;5042370;28;20036;-84
2021/08/28 14:07:04;;;;;;;3.83;1.80;;;;;;;;;;5060533;28;20025;-84
2021/08/28 14:09:30;;;;;;;5.43;2.20;;;;;;;;;;5057688;28;20492;-84
2021/08/28 14:11:55;;;;;;;5.05;2.20;;;;;;;;;;5036950;28;20032;-84
2021/08/28 14:14:21;;;;;;;4.00;2.00;;;;;;;;;;5059367;28;20136;-84
2021/08/28 14:16:46;;;;;;;6.10;2.60;;;;;;;;;;5025584;28;20021;-84
2021/08/28 14:19:11;;;;;;;4.88;2.20;;;;;;;;;;5059599;28;20025;-84
2021/08/28 14:21:37;;;;;;;4.65;2.30;;;;;;;;;;5044036;28;20033;-84
2021/08/28 14:24:02;;;;;;;7.90;2.33;;;;;;;;;;5040870;28;20021;-84
2021/08/28 14:26:28;;;;;;;4.97;2.30;;;;;;;;;;5044034;28;20056;-84
2021/08/28 14:28:56;;;;;;;5.88;2.50;;;;;;;;;;5043115;28;20492;-84
2021/08/28 14:31:22;;;;;;;4.55;2.53;;;;;;;;;;5026731;28;20460;-84
2021/08/28 14:33:48;;;;;;;6.95;2.60;;;;;;;;;;5039952;28;20053;-84
2021/08/28 14:36:13;;;;;;;5.65;2.60;;;;;;;;;;5042483;28;20473;-84
2021/08/28 14:38:38;;;;;;;4.55;2.00;;;;;;;;;;5058936;28;20083;-84
2021/08/28 14:41:04;;;;;;;6.10;2.55;;;;;;;;;;5043857;28;20017;-84
2021/08/28 14:43:29;;;;;;;6.05;2.60;;;;;;;;;;5058685;28;20068;-84